Morris, Canada
Current Conditions -  °F | °C
As of 12:00 AM on Monday 26 Jan 2015 (Local Time) from CYWG Reporting Station
Broken Clouds Broken Clouds  
Wind Chill: 18°   Ceiling: 5400
Heat Index: 28°   Visibility: 15mi
Dew Point: 25°   Wind: 12mph
Humidity: 86%   Direction: 210°SSW
Pressure: 29.56"   Gusts: 21mph
Location:  49.35°N, 97.37°W
Report Text: CYWG 260600Z 21010G18KT 15SM BKN054 M02/M04 A2956 RMK SC6 PRESFR SLP024
Loading
Personal Weather Stations






























Interactive Weather Map New forecast layout! Learn more

10-Day Weather Forecast

Advertisements
Track Severe Weather on mobile